Terminal Aerodrome Forecast
Issued by NWS

Current Version | Previous Version | Graphics & Text | Print | Product List | Glossary On
Versions: 1 2 3 4 5 6 7 8 9 10 11 12 13 14 15 16 17 18
000
FTUS41 KILN 021700
TAFLCK
TAF
KLCK 021727Z 0218/0318 07006KT P6SM VCSH BKN040
     FM030100 05008KT P6SM BKN060
     FM031500 06008KT P6SM BKN040
      AMD NOT SKED=

USA.gov is the U.S. government's official web portal to all federal, state and local government web resources and services.